sensor_id;sensor_type;location;lat;lon;timestamp;pressure;altitude;pressure_sealevel;temperature;humidity
70506;BME280;58032;49.820;6.274;2023-04-26T00:00:31;97819.91;;;-0.30;100.00
70506;BME280;58032;49.820;6.274;2023-04-26T00:02:59;97809.25;;;-0.28;100.00
70506;BME280;58032;49.820;6.274;2023-04-26T00:05:26;97812.88;;;-0.24;100.00
70506;BME280;58032;49.820;6.274;2023-04-26T00:07:55;97814.06;;;-0.25;100.00
70506;BME280;58032;49.820;6.274;2023-04-26T00:10:21;97819.66;;;-0.18;100.00
70506;BME280;58032;49.820;6.274;2023-04-26T00:12:48;97818.47;;;-0.17;100.00
70506;BME280;58032;49.820;6.274;2023-04-26T00:15:15;97816.53;;;-0.12;100.00
70506;BME280;58032;49.820;6.274;2023-04-26T00:17:42;97812.63;;;-0.04;100.00
70506;BME280;58032;49.820;6.274;2023-04-26T00:20:10;97811.47;;;-0.03;100.00
70506;BME280;58032;49.820;6.274;2023-04-26T00:22:38;97807.94;;;0.00;100.00
70506;BME280;58032;49.820;6.274;2023-04-26T00:25:06;97805.16;;;0.00;100.00
70506;BME280;58032;49.820;6.274;2023-04-26T00:27:33;97808.38;;;0.09;100.00
70506;BME280;58032;49.820;6.274;2023-04-26T00:30:00;97801.66;;;0.07;100.00
70506;BME280;58032;49.820;6.274;2023-04-26T00:32:29;97803.56;;;-0.01;100.00
70506;BME280;58032;49.820;6.274;2023-04-26T00:34:56;97803.13;;;-0.07;100.00
70506;BME280;58032;49.820;6.274;2023-04-26T00:37:23;97803.84;;;-0.13;100.00
70506;BME280;58032;49.820;6.274;2023-04-26T00:39:50;97797.41;;;-0.28;100.00
70506;BME280;58032;49.820;6.274;2023-04-26T00:42:17;97796.25;;;-0.27;100.00
70506;BME280;58032;49.820;6.274;2023-04-26T00:44:45;97799.03;;;-0.24;100.00
70506;BME280;58032;49.820;6.274;2023-04-26T00:47:12;97793.09;;;-0.26;100.00
70506;BME280;58032;49.820;6.274;2023-04-26T00:49:39;97794.53;;;-0.43;100.00
70506;BME280;58032;49.820;6.274;2023-04-26T00:52:06;97795.66;;;-0.47;100.00
70506;BME280;58032;49.820;6.274;2023-04-26T00:54:33;97792.00;;;-0.55;100.00
70506;BME280;58032;49.820;6.274;2023-04-26T00:57:01;97793.19;;;-0.56;100.00
70506;BME280;58032;49.820;6.274;2023-04-26T00:59:28;97794.31;;;-0.61;100.00
70506;BME280;58032;49.820;6.274;2023-04-26T01:01:57;97797.00;;;-0.68;100.00
70506;BME280;58032;49.820;6.274;2023-04-26T01:04:24;97805.06;;;-0.90;100.00
70506;BME280;58032;49.820;6.274;2023-04-26T01:06:53;97803.97;;;-1.19;100.00
70506;BME280;58032;49.820;6.274;2023-04-26T01:09:21;97804.91;;;-1.38;100.00
70506;BME280;58032;49.820;6.274;2023-04-26T01:11:48;97805.53;;;-1.49;100.00
70506;BME280;58032;49.820;6.274;2023-04-26T01:14:17;97808.16;;;-1.60;100.00
70506;BME280;58032;49.820;6.274;2023-04-26T01:16:46;97814.78;;;-1.64;100.00
70506;BME280;58032;49.820;6.274;2023-04-26T01:19:13;97798.13;;;-1.71;100.00
70506;BME280;58032;49.820;6.274;2023-04-26T01:21:41;97800.44;;;-1.73;100.00
70506;BME280;58032;49.820;6.274;2023-04-26T01:24:10;97809.88;;;-1.75;100.00
70506;BME280;58032;49.820;6.274;2023-04-26T01:26:40;97805.13;;;-1.78;100.00
70506;BME280;58032;49.820;6.274;2023-04-26T01:29:18;97808.63;;;-1.81;100.00
70506;BME280;58032;49.820;6.274;2023-04-26T01:31:46;97810.28;;;-1.76;100.00
70506;BME280;58032;49.820;6.274;2023-04-26T01:34:13;97808.34;;;-1.72;100.00
70506;BME280;58032;49.820;6.274;2023-04-26T01:36:40;97807.72;;;-1.62;100.00
70506;BME280;58032;49.820;6.274;2023-04-26T01:39:08;97811.78;;;-1.52;100.00
70506;BME280;58032;49.820;6.274;2023-04-26T01:41:35;97815.13;;;-1.39;100.00
70506;BME280;58032;49.820;6.274;2023-04-26T01:44:02;97816.09;;;-1.28;100.00
70506;BME280;58032;49.820;6.274;2023-04-26T01:46:29;97817.38;;;-1.18;100.00
70506;BME280;58032;49.820;6.274;2023-04-26T01:48:56;97809.88;;;-1.17;100.00
70506;BME280;58032;49.820;6.274;2023-04-26T01:51:23;97807.03;;;-1.24;100.00
70506;BME280;58032;49.820;6.274;2023-04-26T01:53:50;97807.75;;;-1.58;100.00
70506;BME280;58032;49.820;6.274;2023-04-26T01:56:18;97798.84;;;-1.75;100.00
70506;BME280;58032;49.820;6.274;2023-04-26T01:58:45;97808.28;;;-1.76;100.00
70506;BME280;58032;49.820;6.274;2023-04-26T02:01:12;97802.38;;;-1.78;100.00
70506;BME280;58032;49.820;6.274;2023-04-26T02:03:39;97803.00;;;-1.61;100.00
70506;BME280;58032;49.820;6.274;2023-04-26T02:06:06;97803.16;;;-1.50;100.00
70506;BME280;58032;49.820;6.274;2023-04-26T02:08:33;97801.75;;;-1.37;100.00
70506;BME280;58032;49.820;6.274;2023-04-26T02:11:00;97795.63;;;-1.23;100.00
70506;BME280;58032;49.820;6.274;2023-04-26T02:13:27;97802.63;;;-1.29;100.00
70506;BME280;58032;49.820;6.274;2023-04-26T02:15:53;97798.50;;;-1.42;100.00
70506;BME280;58032;49.820;6.274;2023-04-26T02:18:21;97800.09;;;-1.41;100.00
70506;BME280;58032;49.820;6.274;2023-04-26T02:20:49;97794.59;;;-1.41;100.00
70506;BME280;58032;49.820;6.274;2023-04-26T02:23:16;97796.97;;;-1.40;100.00
70506;BME280;58032;49.820;6.274;2023-04-26T02:25:47;97788.88;;;-1.56;100.00
70506;BME280;58032;49.820;6.274;2023-04-26T02:28:16;97792.59;;;-1.71;100.00
70506;BME280;58032;49.820;6.274;2023-04-26T02:30:43;97795.25;;;-1.79;100.00
70506;BME280;58032;49.820;6.274;2023-04-26T02:33:10;97793.16;;;-1.85;100.00
70506;BME280;58032;49.820;6.274;2023-04-26T02:35:37;97801.78;;;-1.91;100.00
70506;BME280;58032;49.820;6.274;2023-04-26T02:38:04;97804.38;;;-2.01;100.00
70506;BME280;58032;49.820;6.274;2023-04-26T02:40:31;97790.81;;;-2.10;100.00
70506;BME280;58032;49.820;6.274;2023-04-26T02:42:58;97797.09;;;-2.13;100.00
70506;BME280;58032;49.820;6.274;2023-04-26T02:45:25;97803.09;;;-2.08;100.00
70506;BME280;58032;49.820;6.274;2023-04-26T02:47:52;97797.31;;;-1.99;100.00
70506;BME280;58032;49.820;6.274;2023-04-26T02:50:19;97797.91;;;-1.86;100.00
70506;BME280;58032;49.820;6.274;2023-04-26T02:52:48;97791.63;;;-1.83;100.00
70506;BME280;58032;49.820;6.274;2023-04-26T02:55:14;97789.25;;;-1.84;100.00
70506;BME280;58032;49.820;6.274;2023-04-26T02:57:41;97788.31;;;-1.96;100.00
70506;BME280;58032;49.820;6.274;2023-04-26T03:00:10;97773.31;;;-1.95;100.00
70506;BME280;58032;49.820;6.274;2023-04-26T03:02:39;97782.94;;;-1.85;100.00
70506;BME280;58032;49.820;6.274;2023-04-26T03:05:07;97775.84;;;-1.86;100.00
70506;BME280;58032;49.820;6.274;2023-04-26T03:07:35;97773.16;;;-2.05;100.00
70506;BME280;58032;49.820;6.274;2023-04-26T03:10:02;97777.66;;;-2.20;100.00
70506;BME280;58032;49.820;6.274;2023-04-26T03:12:31;97775.47;;;-2.34;100.00
70506;BME280;58032;49.820;6.274;2023-04-26T03:14:59;97769.81;;;-2.42;100.00
70506;BME280;58032;49.820;6.274;2023-04-26T03:17:29;97769.81;;;-2.42;100.00
70506;BME280;58032;49.820;6.274;2023-04-26T03:19:56;97767.91;;;-2.38;100.00
70506;BME280;58032;49.820;6.274;2023-04-26T03:22:24;97757.03;;;-2.30;100.00
70506;BME280;58032;49.820;6.274;2023-04-26T03:24:51;97767.84;;;-2.18;100.00
70506;BME280;58032;49.820;6.274;2023-04-26T03:27:18;97766.38;;;-2.12;100.00
70506;BME280;58032;49.820;6.274;2023-04-26T03:29:45;97772.44;;;-2.02;100.00
70506;BME280;58032;49.820;6.274;2023-04-26T03:32:12;97771.63;;;-2.03;100.00
70506;BME280;58032;49.820;6.274;2023-04-26T03:34:39;97771.44;;;-2.14;100.00
70506;BME280;58032;49.820;6.274;2023-04-26T03:37:11;97774.41;;;-2.26;100.00
70506;BME280;58032;49.820;6.274;2023-04-26T03:40:09;97770.16;;;-2.47;100.00
70506;BME280;58032;49.820;6.274;2023-04-26T03:42:36;97768.56;;;-2.48;100.00
70506;BME280;58032;49.820;6.274;2023-04-26T03:45:04;97769.22;;;-2.55;100.00
70506;BME280;58032;49.820;6.274;2023-04-26T03:47:31;97774.66;;;-2.58;100.00
70506;BME280;58032;49.820;6.274;2023-04-26T03:49:58;97775.47;;;-2.58;100.00
70506;BME280;58032;49.820;6.274;2023-04-26T03:52:25;97773.06;;;-2.59;100.00
70506;BME280;58032;49.820;6.274;2023-04-26T03:54:52;97770.38;;;-2.56;100.00
70506;BME280;58032;49.820;6.274;2023-04-26T03:57:19;97776.56;;;-2.62;100.00
70506;BME280;58032;49.820;6.274;2023-04-26T03:59:46;97767.75;;;-2.72;100.00
70506;BME280;58032;49.820;6.274;2023-04-26T04:02:13;97772.09;;;-2.71;100.00
70506;BME280;58032;49.820;6.274;2023-04-26T04:04:40;97777.91;;;-2.76;100.00
70506;BME280;58032;49.820;6.274;2023-04-26T04:07:07;97774.34;;;-2.76;100.00
70506;BME280;58032;49.820;6.274;2023-04-26T04:09:34;97776.78;;;-2.71;100.00
70506;BME280;58032;49.820;6.274;2023-04-26T04:12:02;97774.53;;;-2.65;100.00
70506;BME280;58032;49.820;6.274;2023-04-26T04:14:30;97777.41;;;-2.58;100.00
70506;BME280;58032;49.820;6.274;2023-04-26T04:16:57;97770.50;;;-2.48;100.00
70506;BME280;58032;49.820;6.274;2023-04-26T04:19:25;97763.53;;;-2.42;100.00
70506;BME280;58032;49.820;6.274;2023-04-26T04:21:52;97772.59;;;-2.42;100.00
70506;BME280;58032;49.820;6.274;2023-04-26T04:24:19;97769.41;;;-2.44;100.00
70506;BME280;58032;49.820;6.274;2023-04-26T04:26:46;97773.88;;;-2.35;100.00
70506;BME280;58032;49.820;6.274;2023-04-26T04:29:13;97775.19;;;-2.26;100.00
70506;BME280;58032;49.820;6.274;2023-04-26T04:31:42;97772.50;;;-2.22;100.00
70506;BME280;58032;49.820;6.274;2023-04-26T04:34:09;97776.44;;;-2.23;100.00
70506;BME280;58032;49.820;6.274;2023-04-26T04:36:37;97771.03;;;-2.16;100.00
70506;BME280;58032;49.820;6.274;2023-04-26T04:39:06;97780.09;;;-2.15;100.00
70506;BME280;58032;49.820;6.274;2023-04-26T04:41:38;97778.59;;;-1.86;100.00
70506;BME280;58032;49.820;6.274;2023-04-26T04:44:06;97782.59;;;-1.53;100.00
70506;BME280;58032;49.820;6.274;2023-04-26T04:46:33;97773.06;;;-0.91;100.00
70506;BME280;58032;49.820;6.274;2023-04-26T04:49:00;97775.31;;;-0.25;100.00
70506;BME280;58032;49.820;6.274;2023-04-26T04:51:27;97778.53;;;-0.60;100.00
70506;BME280;58032;49.820;6.274;2023-04-26T04:53:56;97782.75;;;-0.74;100.00
70506;BME280;58032;49.820;6.274;2023-04-26T04:56:23;97782.91;;;-0.59;100.00
70506;BME280;58032;49.820;6.274;2023-04-26T04:58:51;97781.22;;;-0.68;100.00
70506;BME280;58032;49.820;6.274;2023-04-26T05:01:20;97786.66;;;-0.78;100.00
70506;BME280;58032;49.820;6.274;2023-04-26T05:03:50;97796.16;;;-0.76;100.00
70506;BME280;58032;49.820;6.274;2023-04-26T05:06:17;97793.84;;;0.23;100.00
70506;BME280;58032;49.820;6.274;2023-04-26T05:08:44;97795.84;;;-0.26;100.00
70506;BME280;58032;49.820;6.274;2023-04-26T05:11:12;97790.91;;;-0.47;100.00
70506;BME280;58032;49.820;6.274;2023-04-26T05:13:39;97790.25;;;-0.33;100.00
70506;BME280;58032;49.820;6.274;2023-04-26T05:16:06;97792.66;;;-0.28;100.00
70506;BME280;58032;49.820;6.274;2023-04-26T05:18:33;97789.31;;;-0.03;100.00
70506;BME280;58032;49.820;6.274;2023-04-26T05:21:00;97788.16;;;0.61;100.00
70506;BME280;58032;49.820;6.274;2023-04-26T05:23:28;97789.59;;;1.25;100.00
70506;BME280;58032;49.820;6.274;2023-04-26T05:25:55;97789.28;;;2.24;100.00
70506;BME280;58032;49.820;6.274;2023-04-26T05:28:43;97785.50;;;5.03;100.00
70506;BME280;58032;49.820;6.274;2023-04-26T05:31:30;97779.63;;;3.64;100.00
70506;BME280;58032;49.820;6.274;2023-04-26T05:34:08;97780.13;;;2.42;100.00
70506;BME280;58032;49.820;6.274;2023-04-26T05:36:37;97792.56;;;3.22;100.00
70506;BME280;58032;49.820;6.274;2023-04-26T05:39:04;97794.94;;;6.02;100.00
70506;BME280;58032;49.820;6.274;2023-04-26T05:41:34;97772.97;;;7.85;100.00
70506;BME280;58032;49.820;6.274;2023-04-26T05:44:01;97762.72;;;6.85;100.00
70506;BME280;58032;49.820;6.274;2023-04-26T05:46:28;97770.75;;;5.02;100.00
70506;BME280;58032;49.820;6.274;2023-04-26T05:48:55;97776.28;;;4.71;100.00
70506;BME280;58032;49.820;6.274;2023-04-26T05:51:23;97773.47;;;3.88;100.00
70506;BME280;58032;49.820;6.274;2023-04-26T05:53:50;97783.63;;;4.54;100.00
70506;BME280;58032;49.820;6.274;2023-04-26T05:56:17;97777.16;;;5.89;100.00
70506;BME280;58032;49.820;6.274;2023-04-26T05:58:44;97769.34;;;6.27;100.00
70506;BME280;58032;49.820;6.274;2023-04-26T06:01:11;97771.56;;;3.77;100.00
70506;BME280;58032;49.820;6.274;2023-04-26T06:03:38;97773.81;;;2.23;100.00
70506;BME280;58032;49.820;6.274;2023-04-26T06:06:05;97780.97;;;1.59;100.00
70506;BME280;58032;49.820;6.274;2023-04-26T06:08:32;97791.81;;;0.79;100.00
70506;BME280;58032;49.820;6.274;2023-04-26T06:10:59;97791.66;;;0.51;100.00
70506;BME280;58032;49.820;6.274;2023-04-26T06:13:26;97798.78;;;0.52;100.00
70506;BME280;58032;49.820;6.274;2023-04-26T06:15:53;97795.72;;;0.71;100.00
70506;BME280;58032;49.820;6.274;2023-04-26T06:18:20;97787.19;;;1.13;100.00
70506;BME280;58032;49.820;6.274;2023-04-26T06:20:47;97800.69;;;1.25;100.00
70506;BME280;58032;49.820;6.274;2023-04-26T06:23:14;97803.38;;;1.03;100.00
70506;BME280;58032;49.820;6.274;2023-04-26T06:25:41;97807.91;;;1.66;100.00
70506;BME280;58032;49.820;6.274;2023-04-26T06:28:11;97806.34;;;2.33;100.00
70506;BME280;58032;49.820;6.274;2023-04-26T06:30:38;97803.19;;;2.10;100.00
70506;BME280;58032;49.820;6.274;2023-04-26T06:33:06;97804.75;;;1.67;100.00
70506;BME280;58032;49.820;6.274;2023-04-26T06:35:41;97804.75;;;1.74;100.00
70506;BME280;58032;49.820;6.274;2023-04-26T06:38:09;97806.38;;;1.83;100.00
70506;BME280;58032;49.820;6.274;2023-04-26T06:40:38;97812.69;;;1.94;100.00
70506;BME280;58032;49.820;6.274;2023-04-26T06:43:05;97809.91;;;1.65;100.00
70506;BME280;58032;49.820;6.274;2023-04-26T06:45:58;97815.88;;;1.78;100.00
70506;BME280;58032;49.820;6.274;2023-04-26T06:48:25;97810.72;;;2.42;100.00
70506;BME280;58032;49.820;6.274;2023-04-26T06:50:52;97818.13;;;2.92;100.00
70506;BME280;58032;49.820;6.274;2023-04-26T06:53:19;97808.19;;;4.28;100.00
70506;BME280;58032;49.820;6.274;2023-04-26T06:55:48;97808.53;;;4.72;100.00
70506;BME280;58032;49.820;6.274;2023-04-26T06:58:14;97813.28;;;4.37;100.00
70506;BME280;58032;49.820;6.274;2023-04-26T07:00:41;97805.25;;;4.43;100.00
70506;BME280;58032;49.820;6.274;2023-04-26T07:03:08;97804.56;;;3.83;100.00
70506;BME280;58032;49.820;6.274;2023-04-26T07:05:35;97805.94;;;4.54;100.00
70506;BME280;58032;49.820;6.274;2023-04-26T07:08:01;97802.44;;;4.85;100.00
70506;BME280;58032;49.820;6.274;2023-04-26T07:10:29;97805.84;;;4.20;100.00
70506;BME280;58032;49.820;6.274;2023-04-26T07:12:56;97806.75;;;4.09;100.00
70506;BME280;58032;49.820;6.274;2023-04-26T07:15:23;97792.44;;;5.80;100.00
70506;BME280;58032;49.820;6.274;2023-04-26T07:17:50;97796.78;;;6.12;100.00
70506;BME280;58032;49.820;6.274;2023-04-26T07:20:17;97805.28;;;4.81;100.00
70506;BME280;58032;49.820;6.274;2023-04-26T07:22:46;97797.31;;;5.14;100.00
70506;BME280;58032;49.820;6.274;2023-04-26T07:25:13;97804.56;;;4.73;100.00
70506;BME280;58032;49.820;6.274;2023-04-26T07:27:40;97808.78;;;4.02;100.00
70506;BME280;58032;49.820;6.274;2023-04-26T07:30:07;97803.88;;;4.20;100.00
70506;BME280;58032;49.820;6.274;2023-04-26T07:32:34;97798.50;;;5.48;100.00
70506;BME280;58032;49.820;6.274;2023-04-26T07:35:05;97795.75;;;5.71;100.00
70506;BME280;58032;49.820;6.274;2023-04-26T07:37:33;97787.16;;;6.13;100.00
70506;BME280;58032;49.820;6.274;2023-04-26T07:39:59;97792.09;;;5.47;100.00
70506;BME280;58032;49.820;6.274;2023-04-26T07:42:27;97793.88;;;5.92;100.00
70506;BME280;58032;49.820;6.274;2023-04-26T07:44:53;97783.03;;;7.66;100.00
70506;BME280;58032;49.820;6.274;2023-04-26T07:47:20;97797.72;;;6.02;100.00
70506;BME280;58032;49.820;6.274;2023-04-26T07:49:52;97794.16;;;5.12;100.00
70506;BME280;58032;49.820;6.274;2023-04-26T07:52:19;97790.41;;;6.79;100.00
70506;BME280;58032;49.820;6.274;2023-04-26T07:54:46;97798.91;;;6.28;100.00
70506;BME280;58032;49.820;6.274;2023-04-26T07:57:13;97784.25;;;5.38;100.00
70506;BME280;58032;49.820;6.274;2023-04-26T07:59:40;97777.09;;;6.20;100.00
70506;BME280;58032;49.820;6.274;2023-04-26T08:02:07;97781.66;;;6.97;100.00
70506;BME280;58032;49.820;6.274;2023-04-26T08:04:33;97794.50;;;6.51;100.00
70506;BME280;58032;49.820;6.274;2023-04-26T08:07:01;97797.28;;;5.76;100.00
70506;BME280;58032;49.820;6.274;2023-04-26T08:09:28;97788.84;;;6.55;100.00
70506;BME280;58032;49.820;6.274;2023-04-26T08:11:56;97796.94;;;7.33;100.00
70506;BME280;58032;49.820;6.274;2023-04-26T08:14:23;97788.53;;;6.93;100.00
70506;BME280;58032;49.820;6.274;2023-04-26T08:16:50;97799.25;;;5.79;100.00
70506;BME280;58032;49.820;6.274;2023-04-26T08:19:17;97790.38;;;7.40;100.00
70506;BME280;58032;49.820;6.274;2023-04-26T08:21:44;97790.25;;;6.67;100.00
70506;BME280;58032;49.820;6.274;2023-04-26T08:24:10;97780.75;;;7.78;100.00
70506;BME280;58032;49.820;6.274;2023-04-26T08:26:37;97781.81;;;7.10;100.00
70506;BME280;58032;49.820;6.274;2023-04-26T08:29:04;97784.56;;;7.51;100.00
70506;BME280;58032;49.820;6.274;2023-04-26T08:31:44;97783.19;;;7.75;100.00
70506;BME280;58032;49.820;6.274;2023-04-26T08:34:11;97782.53;;;7.88;100.00
70506;BME280;58032;49.820;6.274;2023-04-26T08:36:39;97781.88;;;6.19;100.00
70506;BME280;58032;49.820;6.274;2023-04-26T08:39:07;97789.72;;;6.28;100.00
70506;BME280;58032;49.820;6.274;2023-04-26T08:41:36;97787.63;;;7.20;100.00
70506;BME280;58032;49.820;6.274;2023-04-26T08:44:04;97782.16;;;7.86;100.00
70506;BME280;58032;49.820;6.274;2023-04-26T08:46:49;97781.47;;;7.98;100.00
70506;BME280;58032;49.820;6.274;2023-04-26T08:49:53;97775.47;;;7.63;100.00
70506;BME280;58032;49.820;6.274;2023-04-26T08:52:30;97775.84;;;7.82;100.00
70506;BME280;58032;49.820;6.274;2023-04-26T08:54:58;97783.31;;;8.05;100.00
70506;BME280;58032;49.820;6.274;2023-04-26T08:57:26;97782.09;;;7.89;100.00
70506;BME280;58032;49.820;6.274;2023-04-26T08:59:54;97774.91;;;8.05;100.00
70506;BME280;58032;49.820;6.274;2023-04-26T09:02:23;97774.63;;;7.99;100.00
70506;BME280;58032;49.820;6.274;2023-04-26T09:04:50;97781.66;;;8.40;100.00
70506;BME280;58032;49.820;6.274;2023-04-26T09:07:20;97769.22;;;9.43;100.00
70506;BME280;58032;49.820;6.274;2023-04-26T09:09:49;97759.38;;;9.09;100.00
70506;BME280;58032;49.820;6.274;2023-04-26T09:12:18;97761.63;;;9.56;100.00
70506;BME280;58032;49.820;6.274;2023-04-26T09:14:48;97777.97;;;8.11;100.00
70506;BME280;58032;49.820;6.274;2023-04-26T09:17:28;97777.00;;;8.01;100.00
70506;BME280;58032;49.820;6.274;2023-04-26T09:20:00;97768.97;;;9.24;100.00
70506;BME280;58032;49.820;6.274;2023-04-26T09:22:32;97755.69;;;10.54;100.00
70506;BME280;58032;49.820;6.274;2023-04-26T09:25:03;97748.75;;;11.56;100.00
70506;BME280;58032;49.820;6.274;2023-04-26T09:27:36;97762.66;;;8.78;100.00
70506;BME280;58032;49.820;6.274;2023-04-26T09:30:07;97753.16;;;9.30;100.00
70506;BME280;58032;49.820;6.274;2023-04-26T09:35:39;97750.69;;;9.58;100.00
70506;BME280;58032;49.820;6.274;2023-04-26T09:38:15;97746.84;;;10.17;100.00
70506;BME280;58032;49.820;6.274;2023-04-26T09:40:47;97752.28;;;10.11;100.00
70506;BME280;58032;49.820;6.274;2023-04-26T09:45:55;97753.69;;;10.41;100.00
70506;BME280;58032;49.820;6.274;2023-04-26T09:48:28;97744.25;;;10.70;100.00
70506;BME280;58032;49.820;6.274;2023-04-26T09:53:40;97747.00;;;10.61;100.00
70506;BME280;58032;49.820;6.274;2023-04-26T09:56:18;97746.63;;;10.94;100.00
70506;BME280;58032;49.820;6.274;2023-04-26T10:01:14;97743.84;;;10.59;100.00
70506;BME280;58032;49.820;6.274;2023-04-26T10:03:45;97733.56;;;11.32;100.00
70506;BME280;58032;49.820;6.274;2023-04-26T10:06:12;97725.84;;;11.54;94.96
70506;BME280;58032;49.820;6.274;2023-04-26T10:08:39;97720.50;;;11.47;86.96
70506;BME280;58032;49.820;6.274;2023-04-26T10:11:06;97716.31;;;10.28;99.15
70506;BME280;58032;49.820;6.274;2023-04-26T10:13:35;97725.31;;;10.93;100.00
70506;BME280;58032;49.820;6.274;2023-04-26T10:16:03;97716.44;;;11.89;87.20
70506;BME280;58032;49.820;6.274;2023-04-26T10:18:30;97713.47;;;10.76;64.09
70506;BME280;58032;49.820;6.274;2023-04-26T10:21:08;97720.97;;;10.22;89.98
70506;BME280;58032;49.820;6.274;2023-04-26T10:23:37;97717.31;;;9.73;94.10
70506;BME280;58032;49.820;6.274;2023-04-26T10:26:04;97714.13;;;9.97;95.94
70506;BME280;58032;49.820;6.274;2023-04-26T10:28:53;97713.16;;;9.78;100.00
70506;BME280;58032;49.820;6.274;2023-04-26T10:31:22;97698.22;;;10.16;100.00
70506;BME280;58032;49.820;6.274;2023-04-26T10:34:21;97699.19;;;9.35;100.00
70506;BME280;58032;49.820;6.274;2023-04-26T10:39:39;97703.88;;;10.03;100.00
70506;BME280;58032;49.820;6.274;2023-04-26T10:42:25;97705.59;;;9.62;100.00
70506;BME280;58032;49.820;6.274;2023-04-26T10:44:54;97695.94;;;9.24;100.00
70506;BME280;58032;49.820;6.274;2023-04-26T10:47:28;97683.56;;;9.86;100.00
70506;BME280;58032;49.820;6.274;2023-04-26T10:50:07;97691.00;;;9.80;100.00
70506;BME280;58032;49.820;6.274;2023-04-26T10:53:03;97690.19;;;10.27;100.00
70506;BME280;58032;49.820;6.274;2023-04-26T10:55:38;97683.31;;;9.93;100.00
70506;BME280;58032;49.820;6.274;2023-04-26T11:01:08;97668.91;;;11.06;100.00
70506;BME280;58032;49.820;6.274;2023-04-26T11:03:44;97672.69;;;11.12;100.00
70506;BME280;58032;49.820;6.274;2023-04-26T11:06:46;97673.84;;;10.48;100.00
70506;BME280;58032;49.820;6.274;2023-04-26T11:09:34;97678.88;;;10.18;100.00
70506;BME280;58032;49.820;6.274;2023-04-26T11:12:06;97668.59;;;10.37;100.00
70506;BME280;58032;49.820;6.274;2023-04-26T11:14:36;97674.03;;;10.76;100.00
70506;BME280;58032;49.820;6.274;2023-04-26T11:17:05;97661.06;;;11.01;100.00
70506;BME280;58032;49.820;6.274;2023-04-26T11:19:32;97656.59;;;11.53;100.00
70506;BME280;58032;49.820;6.274;2023-04-26T11:21:59;97661.72;;;11.46;100.00
70506;BME280;58032;49.820;6.274;2023-04-26T11:24:28;97661.88;;;11.42;100.00
70506;BME280;58032;49.820;6.274;2023-04-26T11:26:56;97653.28;;;11.46;95.86
70506;BME280;58032;49.820;6.274;2023-04-26T11:29:27;97648.00;;;12.44;90.57
70506;BME280;58032;49.820;6.274;2023-04-26T11:31:56;97657.09;;;12.11;94.11
70506;BME280;58032;49.820;6.274;2023-04-26T11:34:32;97655.56;;;12.38;96.53
70506;BME280;58032;49.820;6.274;2023-04-26T11:37:02;97661.16;;;12.19;100.00
70506;BME280;58032;49.820;6.274;2023-04-26T11:39:33;97652.22;;;12.77;97.67
70506;BME280;58032;49.820;6.274;2023-04-26T11:42:09;97654.63;;;12.32;93.13
70506;BME280;58032;49.820;6.274;2023-04-26T11:44:37;97652.84;;;11.47;100.00
70506;BME280;58032;49.820;6.274;2023-04-26T11:47:04;97643.59;;;11.56;100.00
70506;BME280;58032;49.820;6.274;2023-04-26T11:49:34;97650.06;;;11.56;100.00
70506;BME280;58032;49.820;6.274;2023-04-26T11:52:02;97644.53;;;12.03;95.94
70506;BME280;58032;49.820;6.274;2023-04-26T11:54:32;97647.13;;;10.75;100.00
70506;BME280;58032;49.820;6.274;2023-04-26T11:56:59;97653.69;;;11.26;100.00
70506;BME280;58032;49.820;6.274;2023-04-26T11:59:28;97649.47;;;11.71;100.00
70506;BME280;58032;49.820;6.274;2023-04-26T12:01:56;97650.22;;;12.40;90.27
70506;BME280;58032;49.820;6.274;2023-04-26T12:04:27;97648.56;;;13.04;78.17
70506;BME280;58032;49.820;6.274;2023-04-26T12:06:56;97648.94;;;12.69;75.89
70506;BME280;58032;49.820;6.274;2023-04-26T12:09:25;97651.59;;;12.08;74.90
70506;BME280;58032;49.820;6.274;2023-04-26T12:11:57;97655.19;;;11.99;86.17
70506;BME280;58032;49.820;6.274;2023-04-26T12:14:38;97642.53;;;12.41;89.73
70506;BME280;58032;49.820;6.274;2023-04-26T12:17:05;97639.16;;;11.36;91.27
70506;BME280;58032;49.820;6.274;2023-04-26T12:19:33;97650.47;;;10.60;90.29
70506;BME280;58032;49.820;6.274;2023-04-26T12:22:03;97649.34;;;9.88;90.48
70506;BME280;58032;49.820;6.274;2023-04-26T12:24:30;97649.72;;;10.69;90.05
70506;BME280;58032;49.820;6.274;2023-04-26T12:27:03;97654.53;;;10.59;97.07
70506;BME280;58032;49.820;6.274;2023-04-26T12:29:32;97650.34;;;10.29;93.44
70506;BME280;58032;49.820;6.274;2023-04-26T12:32:00;97650.28;;;11.90;92.90
70506;BME280;58032;49.820;6.274;2023-04-26T12:34:27;97650.19;;;12.59;81.63
70506;BME280;58032;49.820;6.274;2023-04-26T12:36:54;97653.03;;;12.59;79.34
70506;BME280;58032;49.820;6.274;2023-04-26T12:39:21;97645.03;;;13.28;70.26
70506;BME280;58032;49.820;6.274;2023-04-26T12:41:48;97649.31;;;11.84;84.21
70506;BME280;58032;49.820;6.274;2023-04-26T12:44:15;97638.53;;;13.80;84.87
70506;BME280;58032;49.820;6.274;2023-04-26T12:46:43;97641.28;;;13.40;76.67
70506;BME280;58032;49.820;6.274;2023-04-26T12:49:09;97649.09;;;13.45;81.73
70506;BME280;58032;49.820;6.274;2023-04-26T12:51:37;97647.38;;;12.59;86.43
70506;BME280;58032;49.820;6.274;2023-04-26T12:54:04;97645.47;;;12.65;86.86
70506;BME280;58032;49.820;6.274;2023-04-26T12:56:31;97645.16;;;12.91;85.14
70506;BME280;58032;49.820;6.274;2023-04-26T12:58:58;97642.97;;;14.83;71.62
70506;BME280;58032;49.820;6.274;2023-04-26T13:01:24;97635.09;;;14.48;75.56
70506;BME280;58032;49.820;6.274;2023-04-26T13:03:52;97629.88;;;14.32;81.42
70506;BME280;58032;49.820;6.274;2023-04-26T13:06:21;97629.50;;;14.93;77.01
70506;BME280;58032;49.820;6.274;2023-04-26T13:08:47;97626.28;;;14.46;69.15
70506;BME280;58032;49.820;6.274;2023-04-26T13:11:14;97631.75;;;14.74;76.01
70506;BME280;58032;49.820;6.274;2023-04-26T13:13:42;97636.41;;;14.38;64.26
70506;BME280;58032;49.820;6.274;2023-04-26T13:16:09;97624.63;;;14.54;69.84
70506;BME280;58032;49.820;6.274;2023-04-26T13:18:37;97631.25;;;15.06;73.88
70506;BME280;58032;49.820;6.274;2023-04-26T13:21:04;97626.16;;;14.80;63.99